Time;durP1;ratioP1;P1;durP2;ratioP2;P2;SDS_P1;SDS_P2;PMS_P1;PMS_P2;Temp;Humidity;BMP_temperature;BMP_pressure;BME280_temperature;BME280_humidity;BME280_pressure;Samples;Min_cycle;Max_cycle;Signal;HPM_P1;HPM_P2
2023/10/18 00:01:04;;;;;;;8.98;4.68;;;3.10;99.90;;;;;;5053492;28;20021;-65
2023/10/18 00:03:31;;;;;;;8.40;4.75;;;3.10;99.90;;;;;;5053462;28;20047;-65
2023/10/18 00:05:59;;;;;;;6.20;4.85;;;3.10;99.90;;;;;;5053072;28;20361;-64
2023/10/18 00:08:24;;;;;;;9.88;5.03;;;3.00;99.90;;;;;;5035387;28;20040;-63
2023/10/18 00:10:53;;;;;;;8.10;4.97;;;3.00;99.90;;;;;;5053333;28;20454;-64
2023/10/18 00:13:22;;;;;;;11.25;5.47;;;3.00;99.90;;;;;;5039028;28;20036;-64
2023/10/18 00:15:52;;;;;;;9.70;4.93;;;3.00;99.90;;;;;;5057084;28;20116;-64
2023/10/18 00:18:19;;;;;;;9.90;4.95;;;2.90;99.90;;;;;;5057229;28;20066;-64
2023/10/18 00:20:45;;;;;;;6.70;4.68;;;2.90;99.90;;;;;;5057206;28;20354;-63
2023/10/18 00:23:11;;;;;;;9.30;6.88;;;2.80;99.90;;;;;;5057168;28;20044;-64
2023/10/18 00:25:36;;;;;;;10.80;5.75;;;2.90;99.90;;;;;;5056902;28;20061;-64
2023/10/18 00:28:03;;;;;;;8.98;5.50;;;2.70;99.90;;;;;;5038865;28;20029;-64
2023/10/18 00:30:30;;;;;;;6.85;4.97;;;2.80;99.90;;;;;;5057042;28;20029;-63
2023/10/18 00:32:55;;;;;;;9.85;5.55;;;2.80;99.90;;;;;;5056398;28;20060;-64
2023/10/18 00:35:31;;;;;;;7.07;4.80;;;2.80;99.90;;;;;;5056733;28;20025;-64
2023/10/18 00:37:57;;;;;;;7.95;5.00;;;2.80;99.90;;;;;;5057240;28;20036;-63
2023/10/18 00:43:26;;;;;;;14.13;6.43;;;2.80;99.90;;;;;;5056705;28;20021;-64
2023/10/18 00:45:53;;;;;;;9.50;5.78;;;2.90;99.90;;;;;;5038653;28;20465;-63
2023/10/18 00:48:26;;;;;;;9.63;5.43;;;2.70;99.90;;;;;;5056482;28;20033;-64
2023/10/18 00:50:54;;;;;;;8.68;5.28;;;2.70;99.90;;;;;;5038340;28;20079;-64
2023/10/18 00:53:22;;;;;;;10.85;6.53;;;2.70;99.90;;;;;;5056376;28;20040;-63
2023/10/18 00:55:52;;;;;;;12.80;5.90;;;2.70;99.90;;;;;;5056400;28;20031;-64
2023/10/18 00:58:20;;;;;;;8.95;6.38;;;2.70;99.90;;;;;;5056267;28;20032;-63
2023/10/18 01:00:45;;;;;;;14.90;6.40;;;2.70;99.90;;;;;;5056267;28;20025;-64
2023/10/18 01:03:28;;;;;;;11.60;6.85;;;2.70;99.90;;;;;;5056423;28;20386;-64
2023/10/18 01:06:00;;;;;;;10.68;6.80;;;2.60;99.90;;;;;;5056388;28;20458;-64
2023/10/18 01:08:30;;;;;;;15.18;7.80;;;2.80;99.90;;;;;;5056116;28;20021;-64
2023/10/18 01:11:10;;;;;;;12.75;7.18;;;2.60;99.90;;;;;;5056435;28;20033;-63
2023/10/18 01:13:42;;;;;;;12.55;7.72;;;2.60;99.90;;;;;;5056287;28;20025;-64
2023/10/18 01:16:13;;;;;;;13.95;8.00;;;2.50;99.90;;;;;;5056128;28;20100;-64
2023/10/18 01:18:42;;;;;;;15.10;8.57;;;2.50;99.90;;;;;;5038939;28;20029;-64
2023/10/18 01:21:19;;;;;;;11.13;6.63;;;2.60;99.90;;;;;;5055901;28;20021;-64
2023/10/18 01:23:51;;;;;;;11.50;6.55;;;2.50;99.90;;;;;;5055680;28;20098;-64
2023/10/18 01:26:27;;;;;;;11.73;8.00;;;2.50;99.90;;;;;;5056062;28;20033;-64
2023/10/18 01:28:54;;;;;;;16.27;9.27;;;2.40;99.90;;;;;;5038418;28;20029;-64
2023/10/18 01:31:21;;;;;;;13.40;8.10;;;2.40;99.90;;;;;;5055715;28;20346;-63
2023/10/18 01:33:47;;;;;;;15.45;9.13;;;2.40;99.90;;;;;;5055909;28;20056;-64
2023/10/18 01:36:18;;;;;;;12.23;7.65;;;2.40;99.90;;;;;;5055726;28;20029;-64
2023/10/18 01:38:49;;;;;;;11.02;6.78;;;2.40;99.90;;;;;;5055993;28;20036;-64
2023/10/18 01:41:38;;;;;;;13.35;7.47;;;2.40;99.90;;;;;;5055511;28;20507;-64
2023/10/18 01:44:06;;;;;;;14.45;8.73;;;2.40;99.90;;;;;;5054603;28;20041;-64
2023/10/18 01:46:45;;;;;;;14.95;9.75;;;2.40;99.90;;;;;;5055845;28;20159;-64
2023/10/18 01:49:16;;;;;;;;;;;2.40;99.90;;;;;;5037968;28;20086;-64
2023/10/18 01:51:44;;;;;;;14.90;8.70;;;2.30;99.90;;;;;;5055469;28;19912;-64
2023/10/18 01:54:13;;;;;;;16.67;9.35;;;2.30;99.90;;;;;;5055267;28;20017;-64
2023/10/18 01:56:41;;;;;;;15.88;8.18;;;2.30;99.90;;;;;;5037318;28;20024;-64
2023/10/18 01:59:28;;;;;;;12.40;7.80;;;2.30;99.90;;;;;;5055211;28;20100;-64
2023/10/18 02:01:57;;;;;;;14.65;7.43;;;2.30;99.90;;;;;;5054479;28;20037;-64
2023/10/18 02:04:25;;;;;;;;;;;2.30;99.90;;;;;;5055728;28;20033;-64
2023/10/18 02:06:59;;;;;;;12.98;7.32;;;2.30;99.90;;;;;;5054857;28;20400;-64
2023/10/18 02:09:30;;;;;;;11.82;7.22;;;2.30;99.90;;;;;;5054998;28;20041;-64
2023/10/18 02:11:56;;;;;;;12.32;7.70;;;2.20;99.90;;;;;;5055090;28;20024;-63
2023/10/18 02:14:21;;;;;;;14.25;8.23;;;2.20;99.90;;;;;;5055116;28;20025;-64
2023/10/18 02:16:47;;;;;;;11.75;7.55;;;2.10;99.90;;;;;;5037126;28;20056;-63
2023/10/18 02:19:15;;;;;;;14.68;8.60;;;2.10;99.90;;;;;;5054799;28;20094;-64
2023/10/18 02:21:41;;;;;;;13.90;7.82;;;2.20;99.90;;;;;;5054713;28;20021;-64
2023/10/18 02:24:11;;;;;;;12.55;8.18;;;2.20;99.90;;;;;;5037183;28;20017;-63
2023/10/18 02:26:39;;;;;;;15.20;8.00;;;2.20;99.90;;;;;;5054800;28;20029;-64
2023/10/18 02:29:14;;;;;;;12.93;7.37;;;2.20;99.90;;;;;;5037086;28;20029;-63
2023/10/18 02:31:40;;;;;;;13.63;8.43;;;2.20;99.90;;;;;;5036679;28;20029;-64
2023/10/18 02:34:06;;;;;;;11.70;7.90;;;2.10;99.90;;;;;;5036187;28;20060;-63
2023/10/18 02:36:40;;;;;;;13.63;8.40;;;2.10;99.90;;;;;;5036142;28;20029;-64
2023/10/18 02:39:10;;;;;;;18.67;8.50;;;2.10;99.90;;;;;;5036628;28;20039;-64
2023/10/18 02:41:40;;;;;;;11.57;8.18;;;2.20;99.90;;;;;;5036492;28;20063;-63
2023/10/18 02:44:11;;;;;;;14.30;8.25;;;2.20;99.90;;;;;;5054274;28;20025;-64
2023/10/18 02:46:36;;;;;;;11.35;7.95;;;2.10;99.90;;;;;;5054187;28;20095;-63
2023/10/18 02:49:07;;;;;;;11.70;7.78;;;2.10;99.90;;;;;;5054512;28;20017;-63
2023/10/18 02:51:33;;;;;;;12.48;8.15;;;2.00;99.90;;;;;;5054002;28;20504;-64
2023/10/18 02:54:10;;;;;;;11.10;7.85;;;2.00;99.90;;;;;;5054132;28;20060;-64
2023/10/18 02:56:39;;;;;;;12.70;8.43;;;2.00;99.90;;;;;;5054146;28;20025;-64
2023/10/18 02:59:07;;;;;;;18.30;8.27;;;2.00;99.90;;;;;;5035921;28;20033;-64
2023/10/18 03:01:44;;;;;;;18.30;9.73;;;1.90;99.90;;;;;;5036181;28;20133;-64
2023/10/18 03:04:14;;;;;;;14.27;8.50;;;1.80;99.90;;;;;;5054333;28;20350;-64
2023/10/18 03:06:40;;;;;;;15.63;8.95;;;1.80;99.90;;;;;;5053876;28;20113;-64
2023/10/18 03:09:18;;;;;;;14.48;8.68;;;1.80;99.90;;;;;;5036449;28;20017;-64
2023/10/18 03:11:44;;;;;;;15.75;8.80;;;2.50;99.90;;;;;;5053961;28;20025;-63
2023/10/18 03:14:12;;;;;;;13.27;8.88;;;1.70;99.90;;;;;;5053850;28;20365;-64
2023/10/18 03:19:11;;;;;;;14.25;8.18;;;1.70;99.90;;;;;;5053763;28;20468;-64
2023/10/18 03:21:37;;;;;;;12.30;8.00;;;1.50;99.90;;;;;;5053876;28;20036;-63
2023/10/18 03:24:04;;;;;;;15.55;8.65;;;1.50;99.90;;;;;;5053816;28;20024;-64
2023/10/18 03:26:36;;;;;;;14.10;8.77;;;1.50;99.90;;;;;;5053856;28;20029;-63
2023/10/18 03:29:11;;;;;;;13.00;8.85;;;2.10;99.90;;;;;;5036172;28;20381;-64
2023/10/18 03:31:40;;;;;;;19.25;10.63;;;1.70;99.90;;;;;;5035520;28;20035;-64
2023/10/18 03:34:13;;;;;;;14.98;7.97;;;1.80;99.90;;;;;;5054030;28;20029;-64
2023/10/18 03:36:48;;;;;;;13.45;8.25;;;1.70;99.90;;;;;;5053878;28;20061;-66
2023/10/18 03:39:18;;;;;;;18.55;9.70;;;1.70;99.90;;;;;;5053626;28;20025;-64
2023/10/18 03:41:46;;;;;;;15.75;9.65;;;1.60;99.90;;;;;;5053586;28;20025;-64
2023/10/18 03:44:13;;;;;;;16.95;9.00;;;1.80;99.90;;;;;;5053799;28;20059;-68
2023/10/18 03:46:48;;;;;;;15.07;9.75;;;1.80;99.90;;;;;;5038061;28;20072;-64
2023/10/18 03:51:57;;;;;;;20.85;10.35;;;1.70;99.90;;;;;;5057398;28;20029;-64
2023/10/18 03:54:26;;;;;;;15.95;10.38;;;1.70;99.90;;;;;;5057457;28;20052;-64
2023/10/18 03:56:53;;;;;;;19.33;10.93;;;2.50;99.90;;;;;;5039603;28;20428;-64
2023/10/18 03:59:21;;;;;;;24.63;11.43;;;1.70;99.90;;;;;;5057093;28;20385;-64
2023/10/18 04:04:58;;;;;;;17.67;11.00;;;1.80;99.90;;;;;;5015295;28;20466;-64
2023/10/18 04:07:26;;;;;;;19.63;12.43;;;1.70;99.90;;;;;;5049834;28;20045;-64
2023/10/18 04:12:25;;;;;;;19.65;11.23;;;1.70;99.90;;;;;;5057239;28;20040;-64
2023/10/18 04:14:58;;;;;;;19.58;11.55;;;1.60;99.90;;;;;;5057657;28;20029;-64
2023/10/18 04:20:01;;;;;;;19.27;11.55;;;1.70;99.90;;;;;;5057073;28;20116;-64
2023/10/18 04:22:28;;;;;;;18.10;12.30;;;1.70;99.90;;;;;;5039292;28;20095;-64
2023/10/18 04:24:54;;;;;;;20.73;12.18;;;2.40;99.90;;;;;;5056890;28;20033;-64
2023/10/18 04:27:21;;;;;;;22.95;13.70;;;1.70;99.90;;;;;;5056905;28;20037;-64
2023/10/18 04:29:47;;;;;;;24.95;12.93;;;1.80;99.90;;;;;;5039118;28;20094;-64
2023/10/18 04:32:19;;;;;;;21.33;12.68;;;1.80;99.90;;;;;;5056604;28;20045;-64
2023/10/18 04:34:46;;;;;;;19.88;11.90;;;1.80;99.90;;;;;;5056832;28;20029;-64
2023/10/18 04:37:13;;;;;;;22.10;13.05;;;1.80;99.90;;;;;;5056983;28;20112;-64
2023/10/18 04:39:40;;;;;;;22.25;13.88;;;1.90;99.90;;;;;;5056691;28;20052;-63
2023/10/18 04:42:06;;;;;;;21.27;14.15;;;1.80;99.90;;;;;;5056680;28;20049;-64
2023/10/18 04:44:36;;;;;;;21.92;13.45;;;1.80;99.90;;;;;;5056626;28;20044;-63
2023/10/18 04:47:14;;;;;;;19.88;12.95;;;1.70;99.90;;;;;;5056476;28;20468;-64
2023/10/18 04:49:40;;;;;;;26.53;15.03;;;1.70;99.90;;;;;;5056526;28;20108;-63
2023/10/18 04:52:09;;;;;;;23.80;14.65;;;1.80;99.90;;;;;;5056480;28;20021;-64
2023/10/18 04:54:37;;;;;;;29.92;15.18;;;1.80;99.90;;;;;;5056423;28;20036;-64
2023/10/18 04:57:06;;;;;;;32.47;15.18;;;1.80;99.90;;;;;;5056009;28;20029;-64
2023/10/18 04:59:44;;;;;;;;;;;1.80;99.90;;;;;;5038630;28;20433;-64
2023/10/18 05:02:16;;;;;;;26.98;14.82;;;1.90;99.90;;;;;;5056290;28;19983;-64
2023/10/18 05:04:42;;;;;;;25.30;15.35;;;1.90;99.90;;;;;;5039387;28;20061;-64
2023/10/18 05:17:33;;;;;;;24.00;14.95;;;2.10;99.90;;;;;;5056173;28;20028;-64
2023/10/18 05:20:14;;;;;;;25.83;15.50;;;2.20;99.90;;;;;;5056050;28;20030;-67
2023/10/18 05:22:41;;;;;;;21.05;14.93;;;2.20;99.90;;;;;;5038634;28;20029;-71
2023/10/18 05:27:35;;;;;;;27.40;15.98;;;2.30;99.90;;;;;;5056194;28;20396;-66
2023/10/18 05:30:14;;;;;;;22.67;15.02;;;2.30;99.90;;;;;;5038069;28;20021;-65
2023/10/18 05:33:02;;;;;;;22.90;14.82;;;2.30;99.90;;;;;;5056249;28;20049;-65
2023/10/18 05:35:33;;;;;;;22.00;15.15;;;2.60;99.90;;;;;;5055816;28;20032;-71
2023/10/18 05:37:59;;;;;;;22.70;14.30;;;2.50;99.90;;;;;;5037915;28;20120;-66
2023/10/18 05:43:22;;;;;;;25.05;15.80;;;2.70;99.90;;;;;;5055886;28;20086;-64
2023/10/18 05:45:56;;;;;;;26.58;15.98;;;2.70;99.90;;;;;;5037578;28;20036;-64
2023/10/18 05:48:22;;;;;;;28.48;16.70;;;2.80;99.90;;;;;;5055604;28;20033;-65
2023/10/18 05:50:49;;;;;;;24.02;16.35;;;2.90;99.90;;;;;;5055477;28;20031;-65
2023/10/18 05:53:19;;;;;;;26.77;16.25;;;3.10;99.90;;;;;;5037633;28;20029;-64
2023/10/18 05:55:55;;;;;;;23.85;16.23;;;3.10;99.90;;;;;;5055998;28;20036;-64
2023/10/18 05:58:27;;;;;;;25.10;16.67;;;3.20;99.90;;;;;;5055298;28;20052;-65
2023/10/18 06:00:55;;;;;;;26.73;18.80;;;3.30;99.90;;;;;;5055555;28;20378;-64
2023/10/18 06:03:22;;;;;;;21.58;13.93;;;3.40;99.90;;;;;;5037378;28;20032;-64
2023/10/18 06:05:51;;;;;;;28.30;17.90;;;3.50;99.90;;;;;;5055203;28;20056;-64
2023/10/18 06:08:18;;;;;;;;;;;3.70;99.90;;;;;;5038120;28;20057;-64
2023/10/18 06:10:44;;;;;;;27.42;17.30;;;3.80;99.90;;;;;;5036530;28;19905;-64
2023/10/18 06:13:20;;;;;;;25.45;16.98;;;3.80;99.90;;;;;;5037376;28;20102;-64
2023/10/18 06:15:52;;;;;;;25.80;17.35;;;3.90;99.90;;;;;;5037600;28;20029;-64
2023/10/18 06:18:26;;;;;;;24.08;16.63;;;4.10;99.90;;;;;;5037175;28;20024;-64
2023/10/18 06:20:53;;;;;;;25.17;17.55;;;4.20;99.90;;;;;;5037058;28;20415;-63
2023/10/18 06:26:10;;;;;;;27.42;17.63;;;4.50;99.90;;;;;;5054597;28;20025;-64
2023/10/18 06:28:37;;;;;;;23.17;15.38;;;4.70;99.90;;;;;;5054768;28;20033;-65
2023/10/18 06:31:03;;;;;;;21.55;15.65;;;4.80;99.90;;;;;;5054330;28;20086;-64
2023/10/18 06:33:35;;;;;;;24.33;14.98;;;4.90;99.90;;;;;;5066600;28;20476;-64
2023/10/18 06:36:13;;;;;;;23.10;14.52;;;4.90;99.90;;;;;;5073566;28;20474;-64
2023/10/18 06:38:39;;;;;;;18.73;14.15;;;5.00;99.90;;;;;;5073425;28;20379;-64
2023/10/18 06:41:16;;;;;;;20.58;13.40;;;5.10;99.90;;;;;;5073298;28;20115;-64
2023/10/18 06:43:42;;;;;;;19.88;13.48;;;5.10;99.90;;;;;;5074699;28;20021;-64
2023/10/18 06:46:13;;;;;;;25.70;14.45;;;5.20;99.90;;;;;;5074053;28;20376;-64
2023/10/18 06:48:39;;;;;;;27.75;13.82;;;5.30;99.90;;;;;;5073252;28;20498;-64
2023/10/18 06:51:11;;;;;;;16.92;12.98;;;5.40;99.90;;;;;;5074040;28;20024;-64
2023/10/18 06:53:38;;;;;;;22.08;13.57;;;5.40;99.90;;;;;;5074298;28;20028;-65
2023/10/18 06:56:19;;;;;;;20.08;13.00;;;5.40;99.90;;;;;;5074234;28;20048;-63
2023/10/18 06:58:45;;;;;;;24.20;13.80;;;5.50;99.90;;;;;;5074461;28;20113;-63
2023/10/18 07:01:19;;;;;;;18.77;12.65;;;5.50;99.90;;;;;;5073919;28;20478;-64
2023/10/18 07:03:48;;;;;;;19.13;13.07;;;5.60;99.90;;;;;;5074678;28;20029;-64
2023/10/18 07:06:23;;;;;;;;;;;5.50;99.90;;;;;;5074392;28;20039;-65
2023/10/18 07:08:52;;;;;;;18.50;13.05;;;5.60;99.90;;;;;;5073104;28;19950;-65
2023/10/18 07:11:18;;;;;;;19.05;12.70;;;5.70;99.90;;;;;;5074003;28;20091;-64
2023/10/18 07:13:47;;;;;;;20.02;12.98;;;5.70;99.90;;;;;;5074287;28;20443;-63
2023/10/18 07:21:43;;;;;;;21.75;12.88;;;6.10;99.90;;;;;;5073665;28;20070;-65
2023/10/18 07:24:09;;;;;;;17.40;11.00;;;6.50;99.90;;;;;;5073854;28;20476;-64
2023/10/18 07:26:35;;;;;;;16.63;11.88;;;6.70;99.90;;;;;;5072496;28;20052;-64
2023/10/18 07:29:06;;;;;;;16.45;11.30;;;6.70;99.90;;;;;;5073823;28;20472;-64
2023/10/18 07:31:39;;;;;;;14.48;10.52;;;6.90;99.90;;;;;;5073242;28;20081;-64
2023/10/18 07:34:09;;;;;;;16.25;11.50;;;7.00;99.90;;;;;;5053894;28;20104;-64
2023/10/18 07:36:38;;;;;;;18.42;11.65;;;7.10;99.90;;;;;;5053620;28;20037;-64
2023/10/18 07:39:04;;;;;;;;;;;7.30;99.90;;;;;;5054732;28;20021;-64
2023/10/18 07:41:36;;;;;;;17.48;11.45;;;7.70;99.90;;;;;;5053883;28;20038;-64
2023/10/18 07:44:05;;;;;;;15.95;10.88;;;8.00;99.90;;;;;;5053842;28;20096;-64
2023/10/18 07:46:39;;;;;;;16.83;10.52;;;8.50;99.90;;;;;;5053559;28;20377;-64
2023/10/18 07:49:15;;;;;;;13.90;10.25;;;9.10;99.90;;;;;;5035696;28;20033;-64
2023/10/18 07:51:55;;;;;;;11.82;9.70;;;9.70;99.90;;;;;;5053337;28;20035;-65
2023/10/18 07:54:22;;;;;;;14.75;10.27;;;10.30;99.90;;;;;;5053623;28;20021;-65
2023/10/18 07:56:54;;;;;;;16.30;10.90;;;10.20;99.90;;;;;;5054046;28;20031;-65
2023/10/18 07:59:28;;;;;;;17.27;10.70;;;10.00;99.90;;;;;;5036171;28;20052;-64
2023/10/18 08:02:12;;;;;;;15.40;9.93;;;9.90;99.90;;;;;;5036564;28;20031;-65
2023/10/18 08:04:40;;;;;;;15.57;9.02;;;10.40;99.90;;;;;;5054087;28;20025;-64
2023/10/18 08:07:15;;;;;;;13.38;8.80;;;10.60;99.90;;;;;;5054229;28;20044;-65
2023/10/18 08:09:42;;;;;;;13.05;9.07;;;11.20;99.90;;;;;;5054514;28;20025;-64
2023/10/18 08:12:20;;;;;;;10.25;8.88;;;11.70;99.90;;;;;;5054764;28;20531;-66
2023/10/18 08:14:47;;;;;;;13.93;9.23;;;12.00;99.90;;;;;;5053361;28;20033;-64
2023/10/18 08:17:29;;;;;;;14.25;9.45;;;12.20;99.90;;;;;;5053115;28;20033;-64
2023/10/18 08:20:45;;;;;;;10.27;8.45;;;12.70;99.90;;;;;;5035820;28;20029;-64
2023/10/18 08:23:18;;;;;;;9.83;8.80;;;13.40;99.80;;;;;;5052974;28;20462;-64
2023/10/18 08:25:51;;;;;;;16.27;8.48;;;14.00;97.60;;;;;;5053106;28;20291;-64
2023/10/18 08:28:17;;;;;;;11.55;8.45;;;14.30;96.80;;;;;;5053211;28;20036;-65
2023/10/18 08:33:10;;;;;;;11.88;8.40;;;14.60;95.10;;;;;;5054588;28;20491;-64
2023/10/18 08:35:39;;;;;;;10.95;8.70;;;15.00;94.70;;;;;;5056991;28;20029;-64
2023/10/18 08:38:05;;;;;;;10.27;7.90;;;15.60;93.70;;;;;;5056873;28;20033;-64
2023/10/18 08:43:23;;;;;;;;;;;16.00;92.00;;;;;;5057169;28;20492;-65
2023/10/18 08:45:50;;;;;;;11.48;7.95;;;16.10;91.70;;;;;;5044568;28;20345;-65
2023/10/18 08:48:17;;;;;;;8.90;8.05;;;16.80;90.30;;;;;;5056254;28;20036;-65
2023/10/18 08:50:45;;;;;;;11.98;7.70;;;17.00;88.40;;;;;;5056481;28;20371;-65
2023/10/18 08:53:11;;;;;;;11.73;7.47;;;17.10;87.60;;;;;;5057042;28;20174;-63
2023/10/18 08:55:52;;;;;;;13.18;8.18;;;17.00;86.00;;;;;;5038631;28;20044;-64
2023/10/18 08:58:19;;;;;;;11.00;7.97;;;16.40;87.30;;;;;;5056258;28;20025;-65
2023/10/18 09:03:14;;;;;;;9.70;8.05;;;15.70;89.10;;;;;;5056323;28;20496;-65
2023/10/18 09:05:41;;;;;;;9.23;8.20;;;16.40;88.70;;;;;;5056566;28;20047;-64
2023/10/18 09:08:14;;;;;;;12.73;8.32;;;17.30;86.10;;;;;;5056152;28;20043;-65
2023/10/18 09:18:21;;;;;;;8.48;7.20;;;17.10;81.70;;;;;;5055942;28;20309;-64
2023/10/18 09:20:48;;;;;;;8.68;7.28;;;17.50;80.80;;;;;;5055719;28;20021;-64
2023/10/18 09:23:24;;;;;;;8.35;7.03;;;17.80;78.40;;;;;;5056140;28;20025;-64
2023/10/18 09:25:51;;;;;;;10.85;7.00;;;17.80;78.50;;;;;;5038065;28;20029;-63
2023/10/18 09:28:32;;;;;;;8.80;6.75;;;17.60;78.20;;;;;;5055720;28;20044;-65
2023/10/18 09:31:09;;;;;;;9.13;6.70;;;17.10;78.60;;;;;;5056007;28;20025;-64
2023/10/18 09:33:36;;;;;;;7.50;6.18;;;17.10;77.70;;;;;;5055300;28;20040;-65
2023/10/18 09:36:05;;;;;;;7.30;5.78;;;17.90;76.80;;;;;;5056362;28;20083;-65
2023/10/18 09:38:39;;;;;;;6.53;5.80;;;18.10;76.60;;;;;;5056995;28;20033;-65
2023/10/18 09:41:05;;;;;;;8.15;6.70;;;17.30;76.60;;;;;;5057772;28;20021;-65
2023/10/18 09:43:33;;;;;;;7.57;6.45;;;16.90;77.10;;;;;;5058081;28;20068;-65
2023/10/18 09:45:59;;;;;;;8.20;6.65;;;17.10;77.10;;;;;;5057867;28;20024;-65
2023/10/18 09:48:32;;;;;;;6.75;6.05;;;17.30;75.90;;;;;;5038955;28;20120;-65
2023/10/18 09:51:06;;;;;;;8.63;5.55;;;17.50;77.10;;;;;;5055574;28;20021;-63
2023/10/18 09:53:42;;;;;;;7.10;5.82;;;18.20;76.10;;;;;;5055390;28;20025;-65
2023/10/18 09:56:13;;;;;;;8.45;5.70;;;18.30;74.10;;;;;;5037371;28;20029;-65
2023/10/18 09:58:44;;;;;;;7.22;6.13;;;18.00;73.60;;;;;;5037410;28;20021;-65
2023/10/18 10:01:13;;;;;;;6.88;6.18;;;17.90;74.00;;;;;;5055163;28;20033;-65
2023/10/18 10:03:53;;;;;;;6.65;5.35;;;18.40;72.80;;;;;;5055167;28;20035;-65
2023/10/18 10:06:21;;;;;;;6.30;5.70;;;18.70;72.20;;;;;;5037093;28;20461;-63
2023/10/18 10:09:12;;;;;;;7.57;5.80;;;18.90;71.60;;;;;;5054906;28;20066;-65
2023/10/18 10:11:43;;;;;;;11.07;5.38;;;19.00;68.30;;;;;;5037071;28;20474;-65
2023/10/18 10:14:11;;;;;;;5.95;5.22;;;18.70;68.30;;;;;;5054818;28;20107;-65
2023/10/18 10:16:39;;;;;;;6.85;5.30;;;18.40;68.20;;;;;;5055055;28;20075;-65
2023/10/18 10:19:11;;;;;;;6.85;5.88;;;18.20;68.20;;;;;;5037356;28;20435;-64
2023/10/18 10:21:37;;;;;;;7.28;5.20;;;17.90;69.40;;;;;;5055297;28;20029;-65
2023/10/18 10:24:29;;;;;;;6.95;6.18;;;18.30;70.20;;;;;;5055023;28;20033;-65
2023/10/18 10:26:53;;;;;;;7.97;5.53;;;19.10;67.40;;;;;;5054286;28;20075;-65
2023/10/18 10:31:57;;;;;;;8.13;5.65;;;18.20;66.80;;;;;;5054570;28;20057;-65
2023/10/18 10:34:32;;;;;;;6.05;5.28;;;17.90;68.60;;;;;;5036694;28;20036;-65
2023/10/18 10:37:12;;;;;;;9.32;5.85;;;18.10;67.20;;;;;;5054550;28;20029;-65
2023/10/18 10:39:45;;;;;;;5.50;5.00;;;18.10;67.80;;;;;;5036256;28;20029;-65
2023/10/18 10:42:19;;;;;;;7.05;5.28;;;18.60;67.90;;;;;;5054696;28;20025;-65
2023/10/18 10:47:44;;;;;;;5.78;4.97;;;19.10;65.00;;;;;;5054342;28;20043;-65
2023/10/18 10:50:31;;;;;;;7.07;6.28;;;18.80;66.20;;;;;;5036448;28;20467;-65
2023/10/18 10:52:58;;;;;;;19.88;10.18;;;19.10;64.40;;;;;;5035886;28;20029;-65
2023/10/18 10:55:24;;;;;;;9.32;5.53;;;18.90;64.30;;;;;;5053665;28;20079;-65
2023/10/18 10:57:50;;;;;;;6.25;4.45;;;18.50;64.30;;;;;;5054452;28;20024;-65
2023/10/18 11:03:06;;;;;;;8.65;4.85;;;18.70;63.60;;;;;;5054190;28;20032;-65
2023/10/18 11:05:39;;;;;;;6.10;4.63;;;18.70;63.90;;;;;;5054507;28;20483;-65
2023/10/18 11:08:05;;;;;;;4.53;3.92;;;18.20;63.70;;;;;;5053949;28;20029;-65
2023/10/18 11:10:39;;;;;;;5.72;4.65;;;17.70;65.00;;;;;;5054042;28;20029;-65
2023/10/18 11:13:07;;;;;;;5.43;4.50;;;17.50;66.50;;;;;;5053985;28;20036;-64
2023/10/18 11:15:37;;;;;;;6.37;4.50;;;17.40;66.50;;;;;;5053573;28;20627;-65
2023/10/18 11:18:22;;;;;;;;;;;17.50;66.10;;;;;;5054301;28;20267;-65
2023/10/18 11:20:51;;;;;;;5.43;4.50;;;17.40;66.40;;;;;;5053968;28;19905;-65
2023/10/18 11:23:16;;;;;;;8.02;5.03;;;17.40;65.90;;;;;;5053668;28;20458;-65
2023/10/18 11:25:42;;;;;;;6.25;5.00;;;17.20;66.40;;;;;;5053876;28;20036;-65
2023/10/18 11:28:20;;;;;;;4.68;4.28;;;17.40;66.30;;;;;;5053814;28;20159;-65
2023/10/18 11:30:49;;;;;;;5.75;4.60;;;17.80;66.20;;;;;;5055017;28;20021;-69
2023/10/18 11:33:18;;;;;;;;;;;17.90;65.20;;;;;;5056819;28;20558;-65
2023/10/18 11:35:48;;;;;;;7.63;4.57;;;17.90;65.30;;;;;;5055393;28;19904;-65
2023/10/18 11:38:19;;;;;;;6.10;4.57;;;17.80;65.60;;;;;;5054934;28;20036;-65
2023/10/18 11:40:51;;;;;;;7.28;4.68;;;17.90;64.80;;;;;;5053888;28;20372;-64
2023/10/18 11:43:27;;;;;;;5.72;4.60;;;17.50;66.60;;;;;;5053773;28;20035;-65
2023/10/18 11:46:14;;;;;;;8.48;5.15;;;17.50;66.10;;;;;;5053069;28;20389;-64
2023/10/18 11:48:41;;;;;;;6.82;4.53;;;16.60;67.50;;;;;;5053289;28;20036;-65
2023/10/18 11:51:08;;;;;;;5.97;5.07;;;16.20;68.30;;;;;;5053177;28;20484;-64
2023/10/18 11:53:35;;;;;;;5.18;4.70;;;15.90;69.30;;;;;;5053387;28;20092;-65
2023/10/18 11:56:05;;;;;;;5.22;4.55;;;16.20;69.70;;;;;;5053512;28;20037;-65
2023/10/18 11:58:33;;;;;;;5.65;5.05;;;16.40;68.70;;;;;;5054205;28;20028;-64
2023/10/18 12:01:05;;;;;;;7.10;4.57;;;16.10;69.10;;;;;;5055186;28;20457;-64
2023/10/18 12:03:35;;;;;;;6.63;4.90;;;15.60;70.30;;;;;;5055226;28;20082;-65
2023/10/18 12:06:03;;;;;;;6.45;4.95;;;15.90;72.00;;;;;;5054633;28;20020;-65
2023/10/18 12:08:33;;;;;;;7.47;5.13;;;16.50;71.50;;;;;;5037537;28;20549;-65
2023/10/18 12:11:04;;;;;;;10.65;5.95;;;16.40;69.90;;;;;;5057824;28;20373;-65
2023/10/18 12:13:30;;;;;;;7.43;4.78;;;16.10;70.20;;;;;;5057327;28;20059;-64
2023/10/18 12:16:00;;;;;;;7.22;5.30;;;15.80;71.60;;;;;;5057108;28;20025;-64
2023/10/18 12:18:27;;;;;;;8.15;4.72;;;15.20;72.00;;;;;;5056867;28;20467;-65
2023/10/18 12:20:54;;;;;;;7.93;5.20;;;15.20;73.80;;;;;;5057077;28;20419;-65
2023/10/18 12:23:20;;;;;;;7.55;5.07;;;15.10;73.60;;;;;;5039368;28;20448;-65
2023/10/18 12:25:46;;;;;;;6.03;4.75;;;15.20;72.60;;;;;;5057019;28;20052;-65
2023/10/18 12:28:12;;;;;;;7.15;4.93;;;15.30;73.10;;;;;;5056805;28;20071;-65
2023/10/18 12:30:51;;;;;;;5.20;4.35;;;15.20;72.90;;;;;;5056544;28;20530;-65
2023/10/18 12:33:25;;;;;;;;;;;15.20;73.40;;;;;;5057270;28;20060;-64
2023/10/18 12:35:51;;;;;;;5.57;4.82;;;15.30;73.90;;;;;;5056940;28;19905;-64
2023/10/18 12:38:26;;;;;;;6.90;5.38;;;15.20;75.50;;;;;;5056806;28;20021;-64
2023/10/18 12:40:54;;;;;;;6.18;5.57;;;15.20;75.20;;;;;;5056746;28;20021;-65
2023/10/18 12:43:21;;;;;;;8.82;5.70;;;15.10;75.60;;;;;;5056677;28;20021;-65
2023/10/18 12:45:50;;;;;;;8.70;5.32;;;14.70;77.00;;;;;;5056673;28;20119;-64
2023/10/18 12:48:21;;;;;;;6.50;5.20;;;14.60;77.50;;;;;;5056633;28;20041;-65
2023/10/18 12:50:50;;;;;;;6.90;5.35;;;14.50;77.40;;;;;;5056645;28;20017;-64
2023/10/18 12:53:18;;;;;;;6.45;5.65;;;14.60;78.50;;;;;;5038714;28;20031;-65
2023/10/18 12:55:53;;;;;;;10.32;6.25;;;14.70;78.00;;;;;;5038653;28;20592;-65
2023/10/18 12:58:19;;;;;;;8.00;6.03;;;14.60;77.80;;;;;;5056703;28;20369;-64
2023/10/18 13:00:45;;;;;;;8.75;5.68;;;14.70;78.30;;;;;;5056433;28;20029;-65
2023/10/18 13:05:40;;;;;;;7.57;5.35;;;15.00;77.90;;;;;;5056314;28;20032;-65
2023/10/18 13:08:22;;;;;;;11.77;6.68;;;15.30;77.10;;;;;;5056311;28;20393;-64
2023/10/18 13:10:57;;;;;;;12.45;6.25;;;15.40;76.40;;;;;;5056644;28;20025;-65
2023/10/18 13:13:23;;;;;;;8.93;5.63;;;15.40;76.50;;;;;;5056627;28;20052;-65
2023/10/18 13:15:48;;;;;;;5.70;5.15;;;15.40;76.30;;;;;;5038254;28;20033;-64
2023/10/18 13:18:14;;;;;;;8.32;5.70;;;15.10;77.20;;;;;;5055292;28;20025;-64
2023/10/18 13:20:44;;;;;;;6.55;5.53;;;15.00;77.90;;;;;;5056026;28;20027;-65
2023/10/18 13:23:12;;;;;;;11.10;5.93;;;14.90;77.90;;;;;;5056127;28;20372;-64
2023/10/18 13:25:49;;;;;;;7.35;5.40;;;14.80;77.80;;;;;;5055950;28;20461;-64
2023/10/18 13:28:24;;;;;;;10.32;5.32;;;14.70;78.70;;;;;;5055882;28;20431;-65
2023/10/18 13:30:51;;;;;;;8.68;6.00;;;14.70;78.90;;;;;;5055905;28;20028;-64
2023/10/18 13:33:18;;;;;;;7.25;5.70;;;14.70;79.00;;;;;;5055946;28;20053;-73
2023/10/18 13:35:49;;;;;;;8.80;5.93;;;14.50;79.00;;;;;;5058303;28;20076;-74
2023/10/18 13:38:15;;;;;;;8.32;6.28;;;14.70;79.10;;;;;;5039492;28;20465;-73
2023/10/18 13:40:43;;;;;;;7.38;5.93;;;14.80;79.00;;;;;;5056005;28;20025;-74
2023/10/18 13:43:09;;;;;;;7.72;5.70;;;14.80;78.60;;;;;;5056263;28;20063;-74
2023/10/18 13:45:37;;;;;;;8.23;5.95;;;14.70;79.40;;;;;;5056989;28;20021;-74
2023/10/18 13:48:02;;;;;;;7.05;5.80;;;14.40;79.80;;;;;;5041689;28;20033;-73
2023/10/18 13:50:38;;;;;;;6.32;5.72;;;14.40;80.30;;;;;;5039076;28;20444;-74
2023/10/18 13:53:05;;;;;;;7.50;5.93;;;14.30;80.50;;;;;;5058596;28;20408;-74
2023/10/18 13:55:31;;;;;;;10.43;6.38;;;14.20;81.40;;;;;;5038931;28;20072;-74
2023/10/18 13:57:57;;;;;;;9.50;6.30;;;14.00;82.00;;;;;;5056509;28;20377;-74
2023/10/18 14:00:24;;;;;;;8.57;5.93;;;13.90;82.20;;;;;;5039094;28;20024;-74
2023/10/18 14:02:53;;;;;;;7.47;6.68;;;14.00;82.80;;;;;;5055925;28;20025;-74
2023/10/18 14:05:21;;;;;;;;;;;14.00;83.00;;;;;;5038423;28;20033;-74
2023/10/18 14:07:47;;;;;;;6.97;6.28;;;14.00;82.80;;;;;;5038652;28;19924;-74